Elmira, New York
Current Conditions -  °F | °C
As of 2:53 PM on Wednesday 28 Jan 2015 (Local Time) from KELM Reporting Station
Clear Clear  
Wind Chill: 23°   Ceiling: Unl
Heat Index: 30°   Visibility: 10mi
Dew Point:   Wind: 7mph
Humidity: 33%   Direction: 360°N
Pressure: 30.2"   Gusts: NA
Location:  42.09°N, 76.8°W
Report Text: KELM 281953Z AUTO 36006KT 10SM CLR M01/M16 A3020 RMK AO2 SLP243 T10111156
Loading
Personal Weather Stations






























Interactive Weather Map New forecast layout! Learn more

10-Day Weather Forecast

Advertisements
Track Severe Weather on mobile